Huizen, Netherlands
Current Conditions -  °F | °C
As of 9:25 AM on Thursday 18 Dec 2014 (Local Time) from EHAM Reporting Station
Drizzle Drizzle  
Wind Chill: 52°   Ceiling: 600
Heat Index: 52°   Visibility: 2.5mi
Dew Point: 50°   Wind: 18mph
Humidity: 94%   Direction: 240°WSW
Pressure: 29.74"   Gusts: NA
Location:  52.3°N, 5.24°E
Report Text: EHAM 180825Z 24016KT 210V270 4000 -DZ FEW004 SCT005 BKN00611/10 Q1007 BECMG 8000 TEMPO 3000
Loading
Personal Weather Stations






























Interactive Weather Map New forecast layout! Learn more

10-Day Weather Forecast

Advertisements
Track Severe Weather on mobile